Time;durP1;ratioP1;P1;durP2;ratioP2;P2;SDS_P1;SDS_P2;PMS_P1;PMS_P2;Temp;Humidity;BMP_temperature;BMP_pressure;BME280_temperature;BME280_humidity;BME280_pressure;Samples;Min_cycle;Max_cycle;Signal;HPM_P1;HPM_P2
2021/11/28 00:00:27;;;;;;;34.63;21.70;;;5.20;99.90;;;;;;4936998;29;20208;-76
2021/11/28 00:02:54;;;;;;;34.57;22.13;;;5.20;99.90;;;;;;4951436;29;20209;-76
2021/11/28 00:05:24;;;;;;;27.67;21.30;;;5.10;99.90;;;;;;4956161;29;20252;-77
2021/11/28 00:10:51;;;;;;;29.20;21.07;;;5.20;99.90;;;;;;4956310;29;20276;-76
2021/11/28 00:13:35;;;;;;;33.27;21.90;;;5.20;99.90;;;;;;4956792;29;20201;-77
2021/11/28 00:16:02;;;;;;;33.50;21.27;;;5.30;99.90;;;;;;4957146;29;20540;-77
2021/11/28 00:18:29;;;;;;;30.90;21.57;;;5.30;99.90;;;;;;4956528;29;20888;-77
2021/11/28 00:20:57;;;;;;;30.53;21.67;;;5.40;99.90;;;;;;4957086;29;20659;-77
2021/11/28 00:23:24;;;;;;;30.03;21.60;;;5.40;99.90;;;;;;4957640;29;20576;-77
2021/11/28 00:25:52;;;;;;;30.40;21.70;;;5.40;99.90;;;;;;4957454;29;20212;-77
2021/11/28 00:28:20;;;;;;;33.83;22.67;;;5.30;99.90;;;;;;4957679;29;20232;-77
2021/11/28 00:30:47;;;;;;;30.47;21.57;;;5.20;99.90;;;;;;4957912;29;20205;-77
2021/11/28 00:33:15;;;;;;;31.30;19.90;;;5.20;99.90;;;;;;4957023;29;20697;-77
2021/11/28 00:35:42;;;;;;;26.43;19.37;;;5.20;99.90;;;;;;4957079;29;20641;-76
2021/11/28 00:38:10;;;;;;;23.40;17.80;;;5.20;99.90;;;;;;4957377;29;20209;-76
2021/11/28 00:40:37;;;;;;;23.87;16.80;;;5.10;99.90;;;;;;4956203;29;20209;-77
2021/11/28 00:43:05;;;;;;;26.83;18.47;;;5.10;99.90;;;;;;4958110;29;20194;-77
2021/11/28 00:45:32;;;;;;;24.77;17.20;;;5.00;99.90;;;;;;4956726;29;20773;-77
2021/11/28 00:48:00;;;;;;;27.47;17.37;;;5.00;99.90;;;;;;4956691;29;20198;-77
2021/11/28 00:50:38;;;;;;;23.63;16.53;;;5.00;99.90;;;;;;4957578;29;20597;-77
2021/11/28 00:53:06;;;;;;;20.77;15.17;;;5.10;99.90;;;;;;4957648;28;20202;-77
2021/11/28 00:55:33;;;;;;;20.00;13.60;;;5.10;99.90;;;;;;4961719;29;20790;-78
2021/11/28 00:58:00;;;;;;;26.13;13.03;;;5.00;99.90;;;;;;4961242;29;20206;-77
2021/11/28 01:01:03;;;;;;;18.83;12.85;;;4.90;99.90;;;;;;4977625;29;20456;-85
2021/11/28 01:03:43;;;;;;;14.43;11.43;;;4.80;99.90;;;;;;4979893;29;20217;-83
2021/11/28 01:16:22;;;;;;;13.63;10.10;;;4.80;99.90;;;;;;4979201;28;20499;-86
2021/11/28 01:29:28;;;;;;;10.13;7.87;;;4.70;99.90;;;;;;4976036;28;20446;-85
2021/11/28 01:36:17;;;;;;;15.17;8.20;;;4.70;99.90;;;;;;4978530;28;20427;-84
2021/11/28 01:43:16;;;;;;;15.40;9.00;;;4.90;99.90;;;;;;4977217;28;20193;-84
2021/11/28 01:56:04;;;;;;;16.27;8.30;;;4.70;99.90;;;;;;4964124;29;20460;-84
2021/11/28 02:56:16;;;;;;;36.33;21.90;;;4.40;99.90;;;;;;4919188;29;20438;-83
2021/11/28 03:15:58;;;;;;;45.93;25.33;;;4.50;99.90;;;;;;4958167;29;20424;-85
2021/11/28 03:28:46;;;;;;;43.67;28.03;;;4.40;99.90;;;;;;4956403;29;20475;-85
2021/11/28 03:44:33;;;;;;;51.53;31.63;;;4.50;99.90;;;;;;4955563;29;20488;-85
2021/11/28 04:07:26;;;;;;;56.23;32.40;;;4.50;99.90;;;;;;4975295;28;20444;-85
2021/11/28 04:13:30;;;;;;;58.83;33.90;;;4.60;99.90;;;;;;4975507;28;20516;-85
2021/11/28 04:16:27;;;;;;;60.87;34.57;;;4.60;99.90;;;;;;4958029;29;20500;-85
2021/11/28 04:26:09;;;;;;;56.77;33.83;;;4.50;99.90;;;;;;4956476;29;20439;-85
2021/11/28 04:29:02;;;;;;;55.03;32.90;;;4.40;99.90;;;;;;4956664;29;20453;-84
2021/11/28 04:48:31;;;;;;;43.33;26.70;;;4.50;99.90;;;;;;4897272;29;20503;-85
2021/11/28 04:55:39;;;;;;;42.87;26.60;;;4.50;99.90;;;;;;4892566;29;20444;-85
2021/11/28 04:58:56;;;;;;;43.27;27.13;;;4.50;99.90;;;;;;4898634;29;20454;-85
2021/11/28 05:17:54;;;;;;;36.77;21.67;;;4.40;99.90;;;;;;4918633;29;20426;-85
2021/11/28 05:23:49;;;;;;;34.63;21.53;;;4.60;99.90;;;;;;4917703;29;20462;-85
2021/11/28 05:26:27;;;;;;;34.87;21.67;;;4.60;99.90;;;;;;4915814;29;20272;-85
2021/11/28 05:28:59;;;;;;;35.13;23.03;;;4.60;99.90;;;;;;4914362;29;20541;-85
2021/11/28 05:31:54;;;;;;;32.27;21.73;;;4.50;99.90;;;;;;4916303;29;21017;-85
2021/11/28 05:34:28;;;;;;;35.40;22.77;;;4.50;99.90;;;;;;4915686;29;20492;-85
2021/11/28 05:37:06;;;;;;;37.60;22.70;;;4.50;99.90;;;;;;4900509;29;20490;-84
2021/11/28 05:42:45;;;;;;;35.37;22.63;;;4.30;99.90;;;;;;4919714;29;20475;-84
2021/11/28 05:45:25;;;;;;;35.33;21.70;;;4.20;99.90;;;;;;4920671;29;20465;-85
2021/11/28 05:51:33;;;;;;;37.33;23.47;;;4.00;99.90;;;;;;4919365;29;20454;-85
2021/11/28 06:00:37;;;;;;;41.70;25.37;;;4.10;99.90;;;;;;4919404;29;20497;-86
2021/11/28 06:03:12;;;;;;;41.23;24.50;;;4.10;99.90;;;;;;4920591;29;20450;-85
2021/11/28 06:20:03;;;;;;;40.00;25.63;;;3.80;99.90;;;;;;4921191;29;20415;-85
2021/11/28 06:29:31;;;;;;;46.23;27.67;;;3.90;99.90;;;;;;4941614;29;20514;-85
2021/11/28 06:32:05;;;;;;;51.23;38.50;;;3.80;99.90;;;;;;4976347;28;20505;-86
2021/11/28 06:41:53;;;;;;;43.90;26.63;;;3.70;99.90;;;;;;4978888;29;20527;-86
2021/11/28 06:44:34;;;;;;;39.80;25.20;;;3.60;99.90;;;;;;4963246;28;20460;-86
2021/11/28 07:00:26;;;;;;;41.83;25.37;;;3.80;99.90;;;;;;4889944;29;20523;-86
2021/11/28 07:03:20;;;;;;;41.10;25.40;;;3.60;99.90;;;;;;4901266;29;20432;-85
2021/11/28 07:06:20;;;;;;;43.23;26.37;;;3.60;99.90;;;;;;4901314;29;20480;-85
2021/11/28 07:09:27;;;;;;;48.13;35.88;;;3.50;99.90;;;;;;4884312;29;20540;-85
2021/11/28 07:12:34;;;;;;;40.33;27.57;;;3.50;99.90;;;;;;4900915;29;20212;-85
2021/11/28 07:15:49;;;;;;;37.60;24.27;;;3.50;99.90;;;;;;4901911;29;20451;-85
2021/11/28 07:28:30;;;;;;;39.07;24.77;;;3.60;99.90;;;;;;4978317;28;20453;-86
2021/11/28 07:31:37;;;;;;;35.77;22.57;;;3.50;99.90;;;;;;4977136;29;20454;-86
2021/11/28 07:34:18;;;;;;;35.83;23.27;;;3.50;99.90;;;;;;4961575;29;20456;-86
2021/11/28 07:45:29;;;;;;;36.47;24.97;;;3.60;99.90;;;;;;4976639;28;20455;-84
2021/11/28 07:54:29;;;;;;;38.53;23.73;;;4.00;99.90;;;;;;4976492;28;20455;-83
2021/11/28 07:57:42;;;;;;;36.30;23.00;;;4.10;99.90;;;;;;4978042;28;20448;-86
2021/11/28 08:00:51;;;;;;;38.47;23.03;;;4.00;99.90;;;;;;4977882;29;20479;-85
2021/11/28 08:06:42;;;;;;;35.87;22.93;;;3.80;99.90;;;;;;5651791;23;20483;-87
2021/11/28 08:09:53;;;;;;;35.33;23.30;;;3.80;99.90;;;;;;4998787;28;20458;-86
2021/11/28 08:53:28;;;;;;;24.70;20.33;;;5.50;99.90;;;;;;4960471;29;20250;-88
2021/11/28 08:59:36;;;;;;;23.80;17.87;;;5.60;99.90;;;;;;4957687;29;20179;-88
2021/11/28 09:18:07;;;;;;;23.87;19.37;;;4.80;99.90;;;;;;4963452;29;20274;-88
2021/11/28 09:24:36;;;;;;;28.60;21.33;;;5.00;99.90;;;;;;4963052;29;20202;-88
2021/11/28 09:27:32;;;;;;;28.27;20.90;;;5.00;99.90;;;;;;4963086;29;20190;-87
2021/11/28 09:50:21;;;;;;;28.07;22.17;;;5.10;99.90;;;;;;5239145;23;20251;-87
2021/11/28 10:49:49;;;;;;;27.13;12.00;;;4.90;99.90;;;;;;5863054;23;20490;-81
2021/11/28 10:52:16;;;;;;;24.33;10.13;;;4.80;99.90;;;;;;4990666;28;20483;-80
2021/11/28 10:54:45;;;;;;;26.77;11.27;;;5.00;99.90;;;;;;4991386;28;20446;-81
2021/11/28 10:57:24;;;;;;;30.70;11.53;;;5.00;99.90;;;;;;4992144;28;20462;-81
2021/11/28 11:00:00;;;;;;;23.70;9.80;;;5.00;99.90;;;;;;4990899;28;20557;-81
2021/11/28 11:02:33;;;;;;;16.90;8.47;;;5.10;99.90;;;;;;4993921;28;20490;-81
2021/11/28 11:05:14;;;;;;;14.53;6.03;;;5.00;99.90;;;;;;4993799;28;20458;-82
2021/11/28 11:07:45;;;;;;;15.67;6.93;;;5.00;99.90;;;;;;4993155;28;20483;-82
2021/11/28 11:10:25;;;;;;;13.50;6.50;;;4.90;99.90;;;;;;4993563;28;20455;-81
2021/11/28 11:12:55;;;;;;;11.70;5.50;;;5.00;99.90;;;;;;4976577;28;20463;-81
2021/11/28 11:15:38;;;;;;;12.00;5.27;;;4.90;99.90;;;;;;4993667;28;20475;-82
2021/11/28 11:18:10;;;;;;;11.57;4.50;;;5.00;99.90;;;;;;4994409;28;20505;-82
2021/11/28 11:20:40;;;;;;;4.50;2.67;;;4.80;99.90;;;;;;4990701;28;20486;-81
2021/11/28 11:23:34;;;;;;;3.20;2.40;;;4.80;99.90;;;;;;4995210;28;20229;-82
2021/11/28 11:26:20;;;;;;;1.97;1.67;;;4.90;99.90;;;;;;4991155;28;20209;-81
2021/11/28 11:29:10;;;;;;;1.97;1.70;;;4.70;99.90;;;;;;4991937;28;20201;-82
2021/11/28 11:31:44;;;;;;;2.60;2.13;;;4.70;99.90;;;;;;4991663;28;20459;-82
2021/11/28 11:34:24;;;;;;;1.90;1.80;;;4.70;99.90;;;;;;4989191;28;20232;-81
2021/11/28 11:37:24;;;;;;;2.20;2.00;;;4.70;99.90;;;;;;4990668;28;20462;-81
2021/11/28 11:39:58;;;;;;;1.70;1.60;;;4.70;99.90;;;;;;4974705;28;20221;-81
2021/11/28 11:42:30;;;;;;;2.00;1.80;;;4.60;99.90;;;;;;4990520;28;20503;-81
2021/11/28 11:44:57;;;;;;;1.73;1.63;;;4.50;99.90;;;;;;4989074;28;20458;-80
2021/11/28 11:47:28;;;;;;;2.40;1.77;;;4.40;99.90;;;;;;4991147;28;20451;-81
2021/11/28 11:49:56;;;;;;;2.30;2.10;;;4.50;99.90;;;;;;4994011;28;20467;-80
2021/11/28 11:52:37;;;;;;;2.50;2.30;;;4.70;99.90;;;;;;4995020;28;20428;-81
2021/11/28 11:55:10;;;;;;;2.83;2.23;;;4.60;99.90;;;;;;4976297;28;20459;-80
2021/11/28 11:57:41;;;;;;;3.83;2.70;;;4.60;99.90;;;;;;4991702;28;20447;-80
2021/11/28 12:00:21;;;;;;;3.23;2.80;;;4.40;99.90;;;;;;4991033;28;20478;-81
2021/11/28 12:02:51;;;;;;;3.73;2.70;;;4.50;99.90;;;;;;4990102;28;20462;-81
2021/11/28 12:05:34;;;;;;;2.63;2.53;;;4.40;99.90;;;;;;4993009;28;20201;-82
2021/11/28 12:08:21;;;;;;;2.50;2.30;;;4.40;99.90;;;;;;4992422;28;20459;-81
2021/11/28 12:11:01;;;;;;;2.90;2.70;;;4.30;99.90;;;;;;4992709;28;20547;-82
2021/11/28 12:13:52;;;;;;;3.23;2.93;;;4.30;99.90;;;;;;4993720;28;20458;-81
2021/11/28 12:16:22;;;;;;;2.90;2.70;;;4.20;99.90;;;;;;4994270;28;20471;-81
2021/11/28 12:18:52;;;;;;;3.97;3.70;;;4.30;99.90;;;;;;4993935;28;20440;-82
2021/11/28 12:21:30;;;;;;;4.60;3.43;;;4.30;99.90;;;;;;4993145;28;20221;-82
2021/11/28 12:24:30;;;;;;;3.60;3.30;;;4.30;99.90;;;;;;4995597;28;20441;-83
2021/11/28 12:27:05;;;;;;;2.93;2.60;;;4.30;99.90;;;;;;4994974;28;20505;-81
2021/11/28 12:29:57;;;;;;;4.17;2.90;;;4.30;99.90;;;;;;4978929;28;20443;-82
2021/11/28 12:32:41;;;;;;;2.50;2.40;;;4.20;99.90;;;;;;4995447;28;20451;-83
2021/11/28 12:35:42;;;;;;;2.83;2.63;;;4.20;99.90;;;;;;4977375;28;20454;-82
2021/11/28 12:38:13;;;;;;;2.53;2.33;;;4.30;99.90;;;;;;4975179;28;20455;-82
2021/11/28 12:40:49;;;;;;;2.57;2.47;;;4.20;99.90;;;;;;4992272;28;20501;-82
2021/11/28 12:43:44;;;;;;;3.13;2.80;;;4.10;99.90;;;;;;4994428;28;20454;-84
2021/11/28 12:49:30;;;;;;;4.73;3.03;;;4.30;99.90;;;;;;4993782;28;20447;-84
2021/11/28 12:53:04;;;;;;;3.03;2.73;;;4.30;99.90;;;;;;4996295;28;20518;-85
2021/11/28 12:56:27;;;;;;;4.00;3.70;;;4.40;99.90;;;;;;4996495;28;20459;-85
2021/11/28 12:59:25;;;;;;;3.50;3.20;;;4.50;99.90;;;;;;4993344;28;20216;-85
2021/11/28 13:10:53;;;;;;;2.67;2.43;;;4.50;99.90;;;;;;4965844;28;20447;-87
2021/11/28 13:13:45;;;;;;;2.63;2.43;;;4.60;99.90;;;;;;4997046;28;20259;-87
2021/11/28 13:16:26;;;;;;;2.87;2.63;;;4.50;99.90;;;;;;4996589;28;20423;-87
2021/11/28 13:19:17;;;;;;;2.80;2.27;;;4.70;99.90;;;;;;4979894;28;20478;-86
2021/11/28 13:21:56;;;;;;;2.73;2.30;;;4.70;99.90;;;;;;4995454;28;20538;-87
2021/11/28 13:25:02;;;;;;;3.27;2.23;;;4.60;99.90;;;;;;4996509;28;20435;-86
2021/11/28 13:27:39;;;;;;;4.00;2.33;;;4.50;99.90;;;;;;4995907;28;20450;-86
2021/11/28 13:30:18;;;;;;;3.28;1.95;;;4.50;99.90;;;;;;4995237;28;20508;-86
2021/11/28 13:32:52;;;;;;;2.80;1.50;;;4.50;99.90;;;;;;4978787;28;20244;-86
2021/11/28 13:35:44;;;;;;;4.77;1.20;;;4.40;99.90;;;;;;4995426;28;20442;-86
2021/11/28 13:38:25;;;;;;;1.00;0.87;;;4.40;99.90;;;;;;4978084;28;20463;-86
2021/11/28 13:41:24;;;;;;;1.80;1.00;;;4.40;99.90;;;;;;4995277;28;20451;-86
2021/11/28 13:44:10;;;;;;;2.70;1.03;;;4.50;99.90;;;;;;4995674;28;20462;-86
2021/11/28 13:49:37;;;;;;;2.00;1.07;;;4.50;99.90;;;;;;4996720;28;20450;-86
2021/11/28 13:52:12;;;;;;;2.30;1.00;;;4.50;99.90;;;;;;4994809;28;20531;-86
2021/11/28 13:58:21;;;;;;;3.93;1.30;;;4.50;99.90;;;;;;4991850;28;20455;-86
2021/11/28 14:11:43;;;;;;;4.97;3.00;;;5.20;99.90;;;;;;4900614;29;20208;-86
2021/11/28 14:14:15;;;;;;;3.50;2.17;;;5.20;99.90;;;;;;4922497;28;20236;-86
2021/11/28 14:16:55;;;;;;;3.03;1.73;;;5.10;99.90;;;;;;4981730;28;20205;-86
2021/11/28 14:19:52;;;;;;;3.03;2.73;;;5.00;99.90;;;;;;4987764;28;20213;-87
2021/11/28 14:25:32;;;;;;;9.73;4.70;;;4.80;99.90;;;;;;4999091;28;20439;-85
2021/11/28 14:28:24;;;;;;;6.20;2.47;;;4.90;99.90;;;;;;4998235;28;20213;-85
2021/11/28 14:31:30;;;;;;;4.53;1.73;;;4.90;99.90;;;;;;4978017;28;20205;-85
2021/11/28 14:36:47;;;;;;;5.07;2.57;;;4.60;99.90;;;;;;4996299;28;20466;-86
2021/11/28 14:39:26;;;;;;;6.20;3.00;;;4.60;99.90;;;;;;4997337;28;20446;-85
2021/11/28 14:42:26;;;;;;;5.53;2.20;;;4.70;99.90;;;;;;4982329;28;20450;-85
2021/11/28 14:44:56;;;;;;;5.13;2.20;;;4.70;99.90;;;;;;4996482;28;20465;-85
2021/11/28 14:47:29;;;;;;;4.27;2.67;;;4.60;99.90;;;;;;4995994;28;20523;-85
2021/11/28 14:53:17;;;;;;;4.70;2.57;;;4.40;99.90;;;;;;4985444;28;20455;-87
2021/11/28 14:56:10;;;;;;;8.30;2.20;;;4.30;99.90;;;;;;4999897;28;20430;-87
2021/11/28 15:02:43;;;;;;;3.90;2.43;;;4.40;99.90;;;;;;4997898;28;20560;-87
2021/11/28 15:05:53;;;;;;;6.10;2.70;;;4.40;99.90;;;;;;4983636;28;20464;-87
2021/11/28 15:08:50;;;;;;;11.40;3.37;;;4.40;99.90;;;;;;4998901;28;20437;-87
2021/11/28 15:11:56;;;;;;;9.77;3.87;;;4.40;99.90;;;;;;5013097;23;20481;-86
2021/11/28 15:18:34;;;;;;;13.20;3.50;;;4.20;99.90;;;;;;4996087;28;20435;-87
2021/11/28 15:21:27;;;;;;;8.37;3.00;;;4.10;99.90;;;;;;4998784;28;20447;-86
2021/11/28 15:23:58;;;;;;;10.67;3.17;;;4.10;99.90;;;;;;4997704;28;20460;-87
2021/11/28 15:26:36;;;;;;;7.07;3.20;;;4.00;99.90;;;;;;4999795;28;21039;-88
2021/11/28 15:32:18;;;;;;;12.77;3.97;;;4.00;99.90;;;;;;4997849;28;20450;-85
2021/11/28 15:34:47;;;;;;;11.60;4.77;;;4.00;99.90;;;;;;4974831;28;20483;-85
2021/11/28 15:40:10;;;;;;;24.60;6.87;;;4.00;99.90;;;;;;5005668;28;20470;-85
2021/11/28 15:42:43;;;;;;;15.43;5.47;;;4.00;99.90;;;;;;5001641;28;20497;-85
2021/11/28 15:45:11;;;;;;;27.13;6.60;;;4.00;99.90;;;;;;5026320;23;20494;-85
2021/11/28 15:47:42;;;;;;;23.47;7.70;;;4.10;99.90;;;;;;5002257;23;20587;-86
2021/11/28 15:50:15;;;;;;;20.87;6.50;;;3.90;99.90;;;;;;5013508;28;20473;-86
2021/11/28 15:53:00;;;;;;;24.50;7.07;;;3.80;99.90;;;;;;5012139;28;20449;-86
2021/11/28 15:55:44;;;;;;;23.53;7.57;;;3.80;99.90;;;;;;5019475;28;20442;-84
2021/11/28 15:58:26;;;;;;;23.23;7.03;;;3.80;99.90;;;;;;5026959;28;20430;-85
2021/11/28 16:01:06;;;;;;;24.43;7.03;;;3.90;99.90;;;;;;5028433;28;20441;-85
2021/11/28 16:03:43;;;;;;;21.83;6.73;;;4.10;99.90;;;;;;4999339;28;20470;-85
2021/11/28 16:06:36;;;;;;;22.33;6.90;;;4.00;99.90;;;;;;5027221;23;20609;-86
2021/11/28 16:09:10;;;;;;;25.20;7.27;;;3.90;99.90;;;;;;5012228;28;20481;-85
2021/11/28 16:14:44;;;;;;;20.00;6.57;;;3.70;99.90;;;;;;5014211;28;20446;-86
2021/11/28 16:20:19;;;;;;;19.00;5.70;;;3.80;99.90;;;;;;5002065;28;20459;-87
2021/11/28 16:23:13;;;;;;;17.93;6.17;;;3.90;99.90;;;;;;4977063;29;20480;-87
2021/11/28 16:26:08;;;;;;;30.17;8.37;;;3.80;99.90;;;;;;4975807;29;20532;-86
2021/11/28 16:29:26;;;;;;;36.80;10.87;;;3.80;99.90;;;;;;4978194;28;20476;-87
2021/11/28 16:34:59;;;;;;;48.97;13.83;;;3.60;99.90;;;;;;5023564;28;20494;-87
2021/11/28 16:37:36;;;;;;;38.80;11.80;;;3.50;99.90;;;;;;4994991;28;20510;-87
2021/11/28 16:40:33;;;;;;;39.27;12.03;;;3.50;99.90;;;;;;5032121;28;20433;-87
2021/11/28 16:46:18;;;;;;;25.87;9.03;;;3.50;99.90;;;;;;5034361;28;20540;-87
2021/11/28 16:58:54;;;;;;;13.17;5.00;;;3.60;99.90;;;;;;5017604;28;20468;-87
2021/11/28 17:01:33;;;;;;;9.23;4.00;;;3.40;99.90;;;;;;5014469;28;20446;-88
2021/11/28 17:04:56;;;;;;;13.97;4.77;;;3.40;99.90;;;;;;5014388;28;20477;-88
2021/11/28 17:07:26;;;;;;;13.47;4.90;;;3.40;99.90;;;;;;5014413;28;20450;-87
2021/11/28 17:10:03;;;;;;;13.60;5.03;;;3.40;99.90;;;;;;5014796;28;20485;-87
2021/11/28 17:15:52;;;;;;;11.87;4.77;;;3.50;99.90;;;;;;5014170;28;20469;-88
2021/11/28 17:22:07;;;;;;;14.40;6.03;;;3.40;99.90;;;;;;5170417;22;20604;-87
2021/11/28 17:24:48;;;;;;;17.83;5.80;;;3.40;99.90;;;;;;5172561;27;20450;-87
2021/11/28 17:27:18;;;;;;;25.33;7.53;;;3.50;99.90;;;;;;5163414;27;20545;-87
2021/11/28 17:29:50;;;;;;;20.60;8.70;;;3.60;99.90;;;;;;5157976;27;20508;-87
2021/11/28 17:32:17;;;;;;;23.33;8.27;;;3.40;99.90;;;;;;5170337;22;20972;-87
2021/11/28 17:34:46;;;;;;;22.03;7.93;;;3.40;99.90;;;;;;5151135;27;20439;-86
2021/11/28 17:37:41;;;;;;;16.50;6.13;;;3.20;99.90;;;;;;5151522;28;20444;-86
2021/11/28 17:40:19;;;;;;;18.37;5.93;;;3.30;99.90;;;;;;5145654;28;20470;-87
2021/11/28 17:42:53;;;;;;;16.10;4.97;;;3.30;99.90;;;;;;5152274;27;20451;-87
2021/11/28 17:45:46;;;;;;;10.40;4.60;;;3.30;99.90;;;;;;5152640;28;20427;-86
2021/11/28 17:48:31;;;;;;;9.87;4.83;;;3.20;99.90;;;;;;5134359;28;20416;-87
2021/11/28 17:51:12;;;;;;;15.13;6.80;;;3.10;99.90;;;;;;5135819;28;20488;-87
2021/11/28 17:53:44;;;;;;;17.43;8.13;;;3.10;99.90;;;;;;5152657;28;20444;-87
2021/11/28 17:56:15;;;;;;;18.57;7.80;;;3.00;99.90;;;;;;5151767;27;20903;-87
2021/11/28 17:58:45;;;;;;;23.70;9.33;;;3.00;99.90;;;;;;5152085;28;20452;-87
2021/11/28 18:01:16;;;;;;;19.60;8.43;;;2.90;99.90;;;;;;5158301;27;20509;-86
2021/11/28 18:03:50;;;;;;;17.60;6.30;;;2.80;99.90;;;;;;5169005;27;20443;-87
2021/11/28 18:06:21;;;;;;;16.07;6.40;;;2.70;99.90;;;;;;5149257;28;20458;-86
2021/11/28 18:08:51;;;;;;;10.30;4.50;;;2.60;99.90;;;;;;5167223;27;20449;-87
2021/11/28 18:11:19;;;;;;;7.97;3.33;;;2.40;99.90;;;;;;5170360;27;20522;-86
2021/11/28 18:13:53;;;;;;;12.07;4.20;;;2.40;99.90;;;;;;5168471;27;20462;-86
2021/11/28 18:16:21;;;;;;;3.97;2.57;;;2.30;99.90;;;;;;5151498;27;20431;-86
2021/11/28 18:18:51;;;;;;;7.33;3.27;;;2.20;99.90;;;;;;5169566;27;20455;-86
2021/11/28 18:21:20;;;;;;;6.73;2.77;;;2.20;99.90;;;;;;5166517;27;20481;-87
2021/11/28 18:23:50;;;;;;;7.87;2.73;;;2.30;99.90;;;;;;5165831;27;20998;-87
2021/11/28 18:26:27;;;;;;;5.60;2.47;;;2.20;99.90;;;;;;5149677;27;20551;-87
2021/11/28 18:28:55;;;;;;;7.07;3.13;;;2.30;99.90;;;;;;5143221;28;20440;-86
2021/11/28 18:31:27;;;;;;;8.73;4.03;;;2.50;99.90;;;;;;5141643;27;20536;-86
2021/11/28 18:34:00;;;;;;;14.53;6.53;;;2.50;99.90;;;;;;5150332;27;20455;-86
2021/11/28 18:36:29;;;;;;;21.20;8.43;;;2.50;99.90;;;;;;5150921;27;20440;-87
2021/11/28 18:39:03;;;;;;;23.53;10.30;;;2.60;99.90;;;;;;5149565;27;20439;-87
2021/11/28 18:41:32;;;;;;;27.40;10.83;;;2.40;99.90;;;;;;5149121;27;20489;-86
2021/11/28 18:44:04;;;;;;;28.93;11.67;;;2.30;99.90;;;;;;5149942;27;20731;-86
2021/11/28 18:46:31;;;;;;;24.57;10.90;;;2.40;99.90;;;;;;5132691;27;20428;-86
2021/11/28 18:48:59;;;;;;;23.70;10.87;;;2.20;99.90;;;;;;5131097;28;20527;-87
2021/11/28 18:51:26;;;;;;;15.67;8.27;;;2.20;99.90;;;;;;5130868;28;20536;-86
2021/11/28 18:53:56;;;;;;;14.83;8.23;;;2.10;99.90;;;;;;5130004;28;20540;-87
2021/11/28 18:56:25;;;;;;;13.57;6.93;;;2.20;99.90;;;;;;5128668;28;20456;-86
2021/11/28 18:58:58;;;;;;;13.97;6.80;;;2.20;99.90;;;;;;5130217;28;20436;-87
2021/11/28 19:01:26;;;;;;;11.37;5.47;;;2.20;99.90;;;;;;5129652;28;20516;-86
2021/11/28 19:03:53;;;;;;;11.87;6.27;;;2.20;99.90;;;;;;5130761;28;20452;-87
2021/11/28 19:06:24;;;;;;;11.97;5.57;;;2.20;99.90;;;;;;5130385;28;20453;-87
2021/11/28 19:08:52;;;;;;;11.00;6.07;;;2.20;99.90;;;;;;5130445;28;20524;-87
2021/11/28 19:11:24;;;;;;;11.67;6.03;;;2.20;99.90;;;;;;5112857;28;20441;-86
2021/11/28 19:13:52;;;;;;;9.30;5.40;;;2.20;99.90;;;;;;5130547;28;20452;-87
2021/11/28 19:16:20;;;;;;;9.80;5.67;;;2.20;99.90;;;;;;5131006;28;20445;-86
2021/11/28 19:18:53;;;;;;;10.43;5.90;;;2.40;99.90;;;;;;5132369;28;20531;-87
2021/11/28 19:21:21;;;;;;;8.77;4.83;;;2.30;99.90;;;;;;5136546;27;21052;-86
2021/11/28 19:23:54;;;;;;;9.63;5.40;;;2.40;99.90;;;;;;5129809;28;20451;-87
2021/11/28 19:26:29;;;;;;;7.87;4.80;;;2.40;99.90;;;;;;5129751;28;20527;-87
2021/11/28 19:29:03;;;;;;;11.57;5.70;;;2.50;99.90;;;;;;5129041;28;20523;-87
2021/11/28 19:31:38;;;;;;;11.17;5.33;;;2.40;99.90;;;;;;5128409;28;20487;-87
2021/11/28 19:34:07;;;;;;;9.47;5.83;;;2.50;99.90;;;;;;5129001;28;20464;-87
2021/11/28 19:36:40;;;;;;;7.50;4.53;;;2.60;99.90;;;;;;5130522;28;20528;-87
2021/11/28 19:39:15;;;;;;;9.20;4.50;;;2.70;99.90;;;;;;5131901;28;20448;-86
2021/11/28 19:41:51;;;;;;;6.53;4.23;;;2.60;99.90;;;;;;5132172;28;20480;-87
2021/11/28 19:44:20;;;;;;;7.00;5.30;;;2.60;99.90;;;;;;5129880;28;20456;-87
2021/11/28 19:46:49;;;;;;;5.87;4.70;;;2.60;99.90;;;;;;5130305;28;20451;-87
2021/11/28 19:49:34;;;;;;;6.23;4.93;;;2.70;99.90;;;;;;5195699;22;20469;-87
2021/11/28 19:52:08;;;;;;;7.40;5.50;;;2.70;99.90;;;;;;5131781;28;20459;-88
2021/11/28 19:54:53;;;;;;;9.63;6.40;;;2.70;99.90;;;;;;5097380;28;20438;-88
2021/11/28 19:57:52;;;;;;;9.43;6.17;;;2.60;99.90;;;;;;5115641;28;20414;-88
2021/11/28 20:03:44;;;;;;;9.17;6.83;;;2.60;99.90;;;;;;5118107;28;20475;-88
2021/11/28 20:09:59;;;;;;;11.77;7.60;;;2.60;99.90;;;;;;5117277;28;20441;-88
2021/11/28 20:12:38;;;;;;;10.40;8.77;;;2.50;99.90;;;;;;5117679;28;20422;-88
2021/11/28 20:15:14;;;;;;;10.37;9.07;;;2.40;99.90;;;;;;5100017;28;20630;-88
2021/11/28 20:17:44;;;;;;;10.80;9.43;;;2.20;99.90;;;;;;5116875;28;20426;-88
2021/11/28 20:20:20;;;;;;;10.57;9.50;;;2.10;99.90;;;;;;5116287;28;20481;-88
2021/11/28 20:23:07;;;;;;;10.83;9.27;;;2.00;99.90;;;;;;5116045;28;20472;-88
2021/11/28 20:26:09;;;;;;;11.33;9.37;;;2.00;99.90;;;;;;5116298;28;20449;-88
2021/11/28 20:28:56;;;;;;;11.13;8.03;;;2.00;99.90;;;;;;5116824;28;20416;-88
2021/11/28 20:31:49;;;;;;;9.07;8.00;;;1.80;99.90;;;;;;5115406;28;20459;-88
2021/11/28 20:34:22;;;;;;;9.63;8.07;;;1.80;99.90;;;;;;5097046;28;20473;-88
2021/11/28 20:37:04;;;;;;;10.23;7.40;;;1.80;99.90;;;;;;5097886;28;20437;-88
2021/11/28 20:39:41;;;;;;;9.17;7.50;;;1.80;99.90;;;;;;5115348;28;20493;-87
2021/11/28 20:42:10;;;;;;;13.97;8.10;;;1.90;99.90;;;;;;5115758;28;20473;-88
2021/11/28 20:47:37;;;;;;;11.43;6.67;;;1.90;99.90;;;;;;5115513;28;20438;-88
2021/11/28 20:50:10;;;;;;;8.87;6.27;;;1.90;99.90;;;;;;5114943;28;20469;-88
2021/11/28 20:55:36;;;;;;;6.00;5.40;;;1.80;99.90;;;;;;5115131;28;20524;-87
2021/11/28 21:04:20;;;;;;;12.80;6.23;;;1.80;99.90;;;;;;5115117;28;20528;-88
2021/11/28 21:07:03;;;;;;;10.13;6.63;;;1.80;99.90;;;;;;5097817;28;20513;-88
2021/11/28 21:09:38;;;;;;;9.43;7.47;;;1.70;99.90;;;;;;5115662;28;20487;-88
2021/11/28 21:12:28;;;;;;;10.10;8.60;;;1.70;99.90;;;;;;5107144;28;20570;-87
2021/11/28 21:15:05;;;;;;;15.40;9.73;;;1.80;99.90;;;;;;5114527;28;20506;-86
2021/11/28 21:17:45;;;;;;;11.87;9.97;;;1.80;99.90;;;;;;5121874;28;20460;-89
2021/11/28 21:20:36;;;;;;;14.50;11.60;;;1.80;99.90;;;;;;5079880;28;20453;-87
2021/11/28 21:25:48;;;;;;;17.87;13.20;;;1.90;99.90;;;;;;5134799;28;20447;-87
2021/11/28 21:28:29;;;;;;;20.93;14.10;;;1.90;99.90;;;;;;5135760;28;20508;-88
2021/11/28 21:31:22;;;;;;;19.03;13.57;;;1.80;99.90;;;;;;5117531;28;20473;-87
2021/11/28 21:33:59;;;;;;;23.57;14.90;;;2.00;99.90;;;;;;5101964;28;20469;-88
2021/11/28 21:40:32;;;;;;;23.50;13.93;;;1.80;99.90;;;;;;5093310;28;20445;-88
2021/11/28 21:43:14;;;;;;;28.60;15.70;;;1.80;99.90;;;;;;5093926;28;20474;-88
2021/11/28 21:45:57;;;;;;;24.17;15.07;;;1.90;99.90;;;;;;5077847;28;20446;-88
2021/11/28 21:48:37;;;;;;;31.57;15.67;;;1.90;99.90;;;;;;5095173;28;20529;-88
2021/11/28 21:51:08;;;;;;;22.43;14.73;;;1.80;99.90;;;;;;5095161;28;20466;-87
2021/11/28 21:53:42;;;;;;;24.57;15.33;;;1.70;99.90;;;;;;5077241;28;20461;-88
2021/11/28 21:56:21;;;;;;;28.23;14.43;;;1.80;99.90;;;;;;5093982;28;20449;-88
2021/11/28 21:59:17;;;;;;;23.00;13.73;;;1.80;99.90;;;;;;5107777;28;20920;-87
2021/11/28 22:01:54;;;;;;;26.80;14.97;;;1.80;99.90;;;;;;5129200;28;20491;-88
2021/11/28 22:04:38;;;;;;;25.07;15.20;;;1.80;99.90;;;;;;5094317;28;20446;-88
2021/11/28 22:07:15;;;;;;;24.47;14.83;;;1.90;99.90;;;;;;5115531;28;20445;-87
2021/11/28 22:10:15;;;;;;;25.43;14.83;;;1.90;99.90;;;;;;5103594;28;20517;-87
2021/11/28 22:13:10;;;;;;;20.03;13.37;;;1.90;99.90;;;;;;5123039;28;20441;-87
2021/11/28 22:15:51;;;;;;;24.03;14.07;;;1.80;99.90;;;;;;5096801;28;20450;-87
2021/11/28 22:18:23;;;;;;;23.03;13.53;;;1.80;99.90;;;;;;5096840;28;20484;-87
2021/11/28 22:20:56;;;;;;;21.83;12.97;;;1.70;99.90;;;;;;5103248;28;20441;-87
2021/11/28 22:23:30;;;;;;;19.27;12.63;;;1.60;99.90;;;;;;5126571;28;20861;-87
2021/11/28 22:26:18;;;;;;;20.23;13.57;;;1.60;99.90;;;;;;5137364;28;20456;-87
2021/11/28 22:32:15;;;;;;;20.50;12.33;;;1.70;99.90;;;;;;5137389;28;20477;-87
2021/11/28 22:35:07;;;;;;;15.87;10.47;;;1.80;99.90;;;;;;5138019;28;20449;-87
2021/11/28 22:37:42;;;;;;;16.23;11.93;;;2.00;99.90;;;;;;5139017;28;20443;-88
2021/11/28 22:40:19;;;;;;;21.57;13.07;;;2.00;99.90;;;;;;5138050;28;20440;-87
2021/11/28 22:43:09;;;;;;;26.13;12.90;;;2.00;99.90;;;;;;5137805;28;20508;-88
2021/11/28 22:45:49;;;;;;;29.27;14.47;;;2.00;99.90;;;;;;5137749;28;20433;-87
2021/11/28 22:48:48;;;;;;;29.87;14.27;;;1.90;99.90;;;;;;5138294;28;20409;-88
2021/11/28 22:51:24;;;;;;;34.77;15.00;;;1.90;99.90;;;;;;5137350;28;20440;-87
2021/11/28 22:54:24;;;;;;;29.40;14.53;;;2.00;99.90;;;;;;5138303;28;20429;-88